sensor_id;sensor_type;location;lat;lon;timestamp;pressure;altitude;pressure_sealevel;temperature;humidity
35507;BME280;36461;52.018;21.036;2023-05-21T00:01:44;101116.49;;;12.23;81.23
35507;BME280;36461;52.018;21.036;2023-05-21T00:04:14;101115.90;;;12.20;81.20
35507;BME280;36461;52.018;21.036;2023-05-21T00:06:42;101119.13;;;12.16;81.37
35507;BME280;36461;52.018;21.036;2023-05-21T00:09:10;101120.25;;;12.13;81.45
35507;BME280;36461;52.018;21.036;2023-05-21T00:11:39;101119.10;;;12.10;81.55
35507;BME280;36461;52.018;21.036;2023-05-21T00:14:07;101120.55;;;12.08;81.78
35507;BME280;36461;52.018;21.036;2023-05-21T00:16:35;101120.13;;;12.04;81.77
35507;BME280;36461;52.018;21.036;2023-05-21T00:19:03;101120.91;;;12.01;81.96
35507;BME280;36461;52.018;21.036;2023-05-21T00:21:31;101120.45;;;11.99;82.02
35507;BME280;36461;52.018;21.036;2023-05-21T00:23:59;101123.30;;;11.96;82.09
35507;BME280;36461;52.018;21.036;2023-05-21T00:26:27;101116.92;;;11.94;82.09
35507;BME280;36461;52.018;21.036;2023-05-21T00:28:56;101115.60;;;11.90;82.35
35507;BME280;36461;52.018;21.036;2023-05-21T00:31:24;101122.23;;;11.89;82.37
35507;BME280;36461;52.018;21.036;2023-05-21T00:33:52;101116.57;;;11.87;82.42
35507;BME280;36461;52.018;21.036;2023-05-21T00:36:20;101121.32;;;11.84;82.55
35507;BME280;36461;52.018;21.036;2023-05-21T00:38:50;101120.02;;;11.81;82.62
35507;BME280;36461;52.018;21.036;2023-05-21T00:41:18;101123.09;;;11.76;82.76
35507;BME280;36461;52.018;21.036;2023-05-21T00:43:47;101123.34;;;11.73;82.79
35507;BME280;36461;52.018;21.036;2023-05-21T00:46:17;101125.99;;;11.71;82.87
35507;BME280;36461;52.018;21.036;2023-05-21T00:48:47;101121.38;;;11.68;83.06
35507;BME280;36461;52.018;21.036;2023-05-21T00:51:16;101117.47;;;11.65;83.19
35507;BME280;36461;52.018;21.036;2023-05-21T00:53:45;101124.13;;;11.62;83.06
35507;BME280;36461;52.018;21.036;2023-05-21T00:56:13;101123.31;;;11.60;83.25
35507;BME280;36461;52.018;21.036;2023-05-21T00:58:41;101126.35;;;11.56;83.29
35507;BME280;36461;52.018;21.036;2023-05-21T01:01:09;101124.88;;;11.52;83.37
35507;BME280;36461;52.018;21.036;2023-05-21T01:03:40;101126.51;;;11.50;83.40
35507;BME280;36461;52.018;21.036;2023-05-21T01:06:10;101124.85;;;11.47;83.65
35507;BME280;36461;52.018;21.036;2023-05-21T01:08:39;101128.52;;;11.45;83.73
35507;BME280;36461;52.018;21.036;2023-05-21T01:11:08;101123.73;;;11.43;83.77
35507;BME280;36461;52.018;21.036;2023-05-21T01:13:38;101121.20;;;11.39;83.90
35507;BME280;36461;52.018;21.036;2023-05-21T01:16:08;101121.11;;;11.36;83.77
35507;BME280;36461;52.018;21.036;2023-05-21T01:18:37;101123.09;;;11.33;83.98
35507;BME280;36461;52.018;21.036;2023-05-21T01:21:06;101123.34;;;11.30;84.09
35507;BME280;36461;52.018;21.036;2023-05-21T01:23:34;101120.13;;;11.26;84.13
35507;BME280;36461;52.018;21.036;2023-05-21T01:26:02;101117.44;;;11.23;84.14
35507;BME280;36461;52.018;21.036;2023-05-21T01:28:30;101118.38;;;11.19;84.35
35507;BME280;36461;52.018;21.036;2023-05-21T01:31:21;101117.23;;;11.16;84.25
35507;BME280;36461;52.018;21.036;2023-05-21T01:33:53;101113.67;;;11.13;84.51
35507;BME280;36461;52.018;21.036;2023-05-21T01:36:24;101114.61;;;11.10;84.37
35507;BME280;36461;52.018;21.036;2023-05-21T01:39:42;101112.77;;;11.06;84.61
35507;BME280;36461;52.018;21.036;2023-05-21T01:41:52;101115.67;;;11.01;84.55
35507;BME280;36461;52.018;21.036;2023-05-21T01:44:23;101114.70;;;10.98;84.70
35507;BME280;36461;52.018;21.036;2023-05-21T01:46:55;101112.69;;;10.95;84.71
35507;BME280;36461;52.018;21.036;2023-05-21T01:49:24;101116.05;;;10.91;84.63
35507;BME280;36461;52.018;21.036;2023-05-21T01:51:52;101115.95;;;10.88;84.79
35507;BME280;36461;52.018;21.036;2023-05-21T01:54:20;101117.41;;;10.85;84.84
35507;BME280;36461;52.018;21.036;2023-05-21T01:56:50;101120.45;;;10.80;84.94
35507;BME280;36461;52.018;21.036;2023-05-21T01:59:20;101121.23;;;10.76;84.95
35507;BME280;36461;52.018;21.036;2023-05-21T02:01:47;101120.95;;;10.73;85.11
35507;BME280;36461;52.018;21.036;2023-05-21T02:04:16;101117.22;;;10.69;85.10
35507;BME280;36461;52.018;21.036;2023-05-21T02:06:44;101119.71;;;10.66;85.04
35507;BME280;36461;52.018;21.036;2023-05-21T02:09:12;101118.74;;;10.62;85.25
35507;BME280;36461;52.018;21.036;2023-05-21T02:11:40;101121.59;;;10.59;85.29
35507;BME280;36461;52.018;21.036;2023-05-21T02:14:09;101118.88;;;10.55;85.48
35507;BME280;36461;52.018;21.036;2023-05-21T02:16:41;101115.65;;;10.52;85.27
35507;BME280;36461;52.018;21.036;2023-05-21T02:19:09;101117.27;;;10.50;85.48
35507;BME280;36461;52.018;21.036;2023-05-21T02:21:39;101115.42;;;10.47;85.43
35507;BME280;36461;52.018;21.036;2023-05-21T02:24:07;101113.58;;;10.44;85.40
35507;BME280;36461;52.018;21.036;2023-05-21T02:26:36;101112.76;;;10.42;85.46
35507;BME280;36461;52.018;21.036;2023-05-21T02:29:04;101112.44;;;10.40;85.61
35507;BME280;36461;52.018;21.036;2023-05-21T02:31:33;101105.91;;;10.37;85.86
35507;BME280;36461;52.018;21.036;2023-05-21T02:34:01;101107.16;;;10.35;85.95
35507;BME280;36461;52.018;21.036;2023-05-21T02:36:29;101105.80;;;10.32;85.90
35507;BME280;36461;52.018;21.036;2023-05-21T02:39:01;101105.84;;;10.31;85.81
35507;BME280;36461;52.018;21.036;2023-05-21T02:41:30;101105.02;;;10.29;85.70
35507;BME280;36461;52.018;21.036;2023-05-21T02:43:58;101104.70;;;10.27;85.86
35507;BME280;36461;52.018;21.036;2023-05-21T02:46:26;101106.11;;;10.25;85.79
35507;BME280;36461;52.018;21.036;2023-05-21T02:48:54;101102.49;;;10.24;85.74
35507;BME280;36461;52.018;21.036;2023-05-21T02:51:23;101101.63;;;10.25;85.99
35507;BME280;36461;52.018;21.036;2023-05-21T02:53:53;101097.81;;;10.26;86.07
35507;BME280;36461;52.018;21.036;2023-05-21T02:56:21;101098.31;;;10.26;85.96
35507;BME280;36461;52.018;21.036;2023-05-21T02:58:50;101095.20;;;10.26;85.95
35507;BME280;36461;52.018;21.036;2023-05-21T03:01:19;101096.05;;;10.28;86.08
35507;BME280;36461;52.018;21.036;2023-05-21T03:03:48;101098.80;;;10.29;86.17
35507;BME280;36461;52.018;21.036;2023-05-21T03:06:18;101099.83;;;10.29;86.13
35507;BME280;36461;52.018;21.036;2023-05-21T03:08:49;101099.14;;;10.29;86.02
35507;BME280;36461;52.018;21.036;2023-05-21T03:11:21;101098.41;;;10.31;86.07
35507;BME280;36461;52.018;21.036;2023-05-21T03:13:53;101094.38;;;10.33;85.84
35507;BME280;36461;52.018;21.036;2023-05-21T03:16:25;101094.55;;;10.35;85.96
35507;BME280;36461;52.018;21.036;2023-05-21T03:18:59;101089.00;;;10.35;85.91
35507;BME280;36461;52.018;21.036;2023-05-21T03:21:31;101092.24;;;10.37;85.97
35507;BME280;36461;52.018;21.036;2023-05-21T03:24:04;101091.83;;;10.41;85.99
35507;BME280;36461;52.018;21.036;2023-05-21T03:26:36;101091.42;;;10.45;86.25
35507;BME280;36461;52.018;21.036;2023-05-21T03:29:09;101086.51;;;10.47;85.99
35507;BME280;36461;52.018;21.036;2023-05-21T03:31:41;101084.89;;;10.50;86.23
35507;BME280;36461;52.018;21.036;2023-05-21T03:34:13;101084.33;;;10.52;86.23
35507;BME280;36461;52.018;21.036;2023-05-21T03:36:46;101081.73;;;10.53;86.08
35507;BME280;36461;52.018;21.036;2023-05-21T03:39:18;101082.72;;;10.55;86.04
35507;BME280;36461;52.018;21.036;2023-05-21T03:41:51;101080.77;;;10.58;86.13
35507;BME280;36461;52.018;21.036;2023-05-21T03:44:33;101079.95;;;10.63;86.14
35507;BME280;36461;52.018;21.036;2023-05-21T03:47:22;101078.14;;;10.67;86.30
35507;BME280;36461;52.018;21.036;2023-05-21T03:49:54;101079.62;;;10.70;86.44
35507;BME280;36461;52.018;21.036;2023-05-21T03:52:24;101081.42;;;10.75;86.58
35507;BME280;36461;52.018;21.036;2023-05-21T03:54:56;101083.41;;;10.80;86.72
35507;BME280;36461;52.018;21.036;2023-05-21T03:57:27;101080.86;;;10.86;86.74
35507;BME280;36461;52.018;21.036;2023-05-21T04:00:00;101079.00;;;10.91;86.63
35507;BME280;36461;52.018;21.036;2023-05-21T04:02:32;101073.35;;;10.96;86.72
35507;BME280;36461;52.018;21.036;2023-05-21T04:12:44;101067.20;;;11.22;87.04
35507;BME280;36461;52.018;21.036;2023-05-21T04:15:14;101068.26;;;11.29;87.12
35507;BME280;36461;52.018;21.036;2023-05-21T04:17:45;101066.55;;;11.35;87.13
35507;BME280;36461;52.018;21.036;2023-05-21T04:20:13;101065.02;;;11.41;87.29
35507;BME280;36461;52.018;21.036;2023-05-21T04:22:43;101065.56;;;11.47;87.49
35507;BME280;36461;52.018;21.036;2023-05-21T04:25:11;101066.82;;;11.59;87.99
35507;BME280;36461;52.018;21.036;2023-05-21T04:27:39;101063.42;;;11.97;88.92
35507;BME280;36461;52.018;21.036;2023-05-21T04:30:09;101066.65;;;12.25;88.25
35507;BME280;36461;52.018;21.036;2023-05-21T04:32:38;101067.73;;;12.30;87.28
35507;BME280;36461;52.018;21.036;2023-05-21T04:35:07;101070.79;;;12.33;87.05
35507;BME280;36461;52.018;21.036;2023-05-21T04:37:35;101065.99;;;12.36;86.88
35507;BME280;36461;52.018;21.036;2023-05-21T04:40:03;101068.48;;;12.40;86.52
35507;BME280;36461;52.018;21.036;2023-05-21T04:42:33;101061.73;;;12.51;86.54
35507;BME280;36461;52.018;21.036;2023-05-21T04:45:02;101062.85;;;12.60;86.46
35507;BME280;36461;52.018;21.036;2023-05-21T04:47:30;101061.36;;;12.64;86.40
35507;BME280;36461;52.018;21.036;2023-05-21T04:50:03;101059.51;;;12.85;86.92
35507;BME280;36461;52.018;21.036;2023-05-21T04:52:31;101056.02;;;13.19;86.54
35507;BME280;36461;52.018;21.036;2023-05-21T04:55:02;101057.94;;;13.41;85.55
35507;BME280;36461;52.018;21.036;2023-05-21T04:57:30;101062.00;;;13.95;86.20
35507;BME280;36461;52.018;21.036;2023-05-21T04:59:59;101063.54;;;14.86;86.46
35507;BME280;36461;52.018;21.036;2023-05-21T05:02:28;101058.73;;;15.19;83.32
35507;BME280;36461;52.018;21.036;2023-05-21T05:04:56;101058.38;;;15.02;81.47
35507;BME280;36461;52.018;21.036;2023-05-21T05:07:24;101058.53;;;14.80;80.80
35507;BME280;36461;52.018;21.036;2023-05-21T05:09:52;101051.86;;;14.68;80.58
35507;BME280;36461;52.018;21.036;2023-05-21T05:12:20;101051.30;;;14.59;79.93
35507;BME280;36461;52.018;21.036;2023-05-21T05:14:48;101055.15;;;14.64;80.29
35507;BME280;36461;52.018;21.036;2023-05-21T05:17:16;101056.56;;;14.63;79.71
35507;BME280;36461;52.018;21.036;2023-05-21T05:19:44;101053.48;;;14.57;79.27
35507;BME280;36461;52.018;21.036;2023-05-21T05:22:13;101050.75;;;14.55;79.44
35507;BME280;36461;52.018;21.036;2023-05-21T05:24:41;101051.48;;;14.91;79.94
35507;BME280;36461;52.018;21.036;2023-05-21T05:27:09;101045.31;;;14.98;79.16
35507;BME280;36461;52.018;21.036;2023-05-21T05:29:38;101049.63;;;14.89;78.49
35507;BME280;36461;52.018;21.036;2023-05-21T05:32:06;101052.02;;;14.82;77.98
35507;BME280;36461;52.018;21.036;2023-05-21T05:34:34;101050.08;;;14.78;77.61
35507;BME280;36461;52.018;21.036;2023-05-21T05:37:02;101050.85;;;14.76;77.53
35507;BME280;36461;52.018;21.036;2023-05-21T05:39:31;101050.59;;;14.78;77.75
35507;BME280;36461;52.018;21.036;2023-05-21T05:42:00;101051.97;;;14.79;77.18
35507;BME280;36461;52.018;21.036;2023-05-21T05:44:28;101047.31;;;14.82;77.20
35507;BME280;36461;52.018;21.036;2023-05-21T05:46:57;101043.89;;;14.85;77.24
35507;BME280;36461;52.018;21.036;2023-05-21T05:49:25;101041.86;;;14.88;77.11
35507;BME280;36461;52.018;21.036;2023-05-21T05:51:53;101040.70;;;14.90;76.51
35507;BME280;36461;52.018;21.036;2023-05-21T05:54:21;101038.96;;;14.95;76.03
35507;BME280;36461;52.018;21.036;2023-05-21T05:56:49;101042.66;;;15.03;76.19
35507;BME280;36461;52.018;21.036;2023-05-21T05:59:18;101039.58;;;15.10;76.19
35507;BME280;36461;52.018;21.036;2023-05-21T06:01:47;101037.70;;;15.18;76.52
35507;BME280;36461;52.018;21.036;2023-05-21T06:04:17;101039.38;;;15.23;75.96
35507;BME280;36461;52.018;21.036;2023-05-21T06:06:46;101038.89;;;15.31;75.68
35507;BME280;36461;52.018;21.036;2023-05-21T06:09:15;101037.80;;;15.41;75.41
35507;BME280;36461;52.018;21.036;2023-05-21T06:11:43;101039.70;;;15.49;74.77
35507;BME280;36461;52.018;21.036;2023-05-21T06:14:11;101041.55;;;15.59;74.54
35507;BME280;36461;52.018;21.036;2023-05-21T06:16:39;101042.76;;;15.68;73.59
35507;BME280;36461;52.018;21.036;2023-05-21T06:19:08;101040.13;;;15.77;73.61
35507;BME280;36461;52.018;21.036;2023-05-21T06:21:36;101038.20;;;15.85;73.08
35507;BME280;36461;52.018;21.036;2023-05-21T06:24:05;101033.93;;;15.95;72.57
35507;BME280;36461;52.018;21.036;2023-05-21T06:26:33;101035.88;;;16.06;72.51
35507;BME280;36461;52.018;21.036;2023-05-21T06:29:02;101037.54;;;16.16;71.95
35507;BME280;36461;52.018;21.036;2023-05-21T06:31:31;101033.65;;;16.25;71.84
35507;BME280;36461;52.018;21.036;2023-05-21T06:34:00;101035.57;;;16.33;71.72
35507;BME280;36461;52.018;21.036;2023-05-21T06:36:28;101040.02;;;16.39;71.02
35507;BME280;36461;52.018;21.036;2023-05-21T06:38:57;101036.17;;;16.46;70.66
35507;BME280;36461;52.018;21.036;2023-05-21T06:41:25;101031.95;;;16.55;69.86
35507;BME280;36461;52.018;21.036;2023-05-21T06:43:57;101032.69;;;16.65;69.22
35507;BME280;36461;52.018;21.036;2023-05-21T06:46:43;101026.21;;;16.76;69.36
35507;BME280;36461;52.018;21.036;2023-05-21T06:49:12;101027.51;;;16.85;69.26
35507;BME280;36461;52.018;21.036;2023-05-21T06:51:41;101020.11;;;16.95;69.66
35507;BME280;36461;52.018;21.036;2023-05-21T06:54:10;101019.23;;;17.02;69.26
35507;BME280;36461;52.018;21.036;2023-05-21T06:56:39;101018.84;;;17.10;69.17
35507;BME280;36461;52.018;21.036;2023-05-21T06:59:07;101013.09;;;17.17;68.37
35507;BME280;36461;52.018;21.036;2023-05-21T07:01:37;101012.41;;;17.23;67.68
35507;BME280;36461;52.018;21.036;2023-05-21T07:04:09;101010.15;;;17.30;67.09
35507;BME280;36461;52.018;21.036;2023-05-21T07:06:39;101006.81;;;17.37;66.56
35507;BME280;36461;52.018;21.036;2023-05-21T07:09:08;101007.92;;;17.47;66.49
35507;BME280;36461;52.018;21.036;2023-05-21T07:11:37;101007.05;;;17.53;65.89
35507;BME280;36461;52.018;21.036;2023-05-21T07:14:07;101009.56;;;17.62;66.10
35507;BME280;36461;52.018;21.036;2023-05-21T07:16:36;101009.55;;;17.69;65.63
35507;BME280;36461;52.018;21.036;2023-05-21T07:19:04;101006.30;;;17.78;65.74
35507;BME280;36461;52.018;21.036;2023-05-21T07:21:33;101006.38;;;17.83;65.12
35507;BME280;36461;52.018;21.036;2023-05-21T07:24:01;101007.38;;;17.91;65.02
35507;BME280;36461;52.018;21.036;2023-05-21T07:26:29;101005.63;;;17.98;64.81
35507;BME280;36461;52.018;21.036;2023-05-21T07:28:58;101002.55;;;18.03;64.13
35507;BME280;36461;52.018;21.036;2023-05-21T07:31:26;101004.05;;;18.11;64.31
35507;BME280;36461;52.018;21.036;2023-05-21T07:33:55;101001.55;;;18.21;63.72
35507;BME280;36461;52.018;21.036;2023-05-21T07:36:26;101004.53;;;18.31;63.14
35507;BME280;36461;52.018;21.036;2023-05-21T07:38:54;101005.02;;;18.38;63.06
35507;BME280;36461;52.018;21.036;2023-05-21T07:41:22;101007.27;;;18.46;62.62
35507;BME280;36461;52.018;21.036;2023-05-21T07:43:50;101003.82;;;18.51;62.22
35507;BME280;36461;52.018;21.036;2023-05-21T07:46:19;101002.63;;;18.59;62.17
35507;BME280;36461;52.018;21.036;2023-05-21T07:48:49;101002.02;;;18.68;61.94
35507;BME280;36461;52.018;21.036;2023-05-21T07:51:17;101001.51;;;18.76;61.41
35507;BME280;36461;52.018;21.036;2023-05-21T07:53:45;101000.86;;;18.82;60.81
35507;BME280;36461;52.018;21.036;2023-05-21T07:56:14;101001.86;;;18.86;60.78
35507;BME280;36461;52.018;21.036;2023-05-21T07:58:43;100998.65;;;18.93;60.47
35507;BME280;36461;52.018;21.036;2023-05-21T08:01:13;101001.06;;;19.03;60.12
35507;BME280;36461;52.018;21.036;2023-05-21T08:03:42;101000.94;;;19.11;59.78
35507;BME280;36461;52.018;21.036;2023-05-21T08:06:11;100998.14;;;19.23;58.92
35507;BME280;36461;52.018;21.036;2023-05-21T08:08:42;100995.38;;;19.32;58.73
35507;BME280;36461;52.018;21.036;2023-05-21T08:11:10;100995.64;;;19.39;59.04
35507;BME280;36461;52.018;21.036;2023-05-21T08:13:38;100993.70;;;19.45;58.48
35507;BME280;36461;52.018;21.036;2023-05-21T08:16:07;100989.59;;;19.52;57.80
35507;BME280;36461;52.018;21.036;2023-05-21T08:18:35;100986.70;;;19.63;57.13
35507;BME280;36461;52.018;21.036;2023-05-21T08:21:03;100983.66;;;19.69;56.59
35507;BME280;36461;52.018;21.036;2023-05-21T08:23:31;100983.44;;;19.73;56.07
35507;BME280;36461;52.018;21.036;2023-05-21T08:26:00;100985.33;;;19.80;56.00
35507;BME280;36461;52.018;21.036;2023-05-21T08:28:29;100985.98;;;19.89;55.88
35507;BME280;36461;52.018;21.036;2023-05-21T08:30:59;100980.48;;;19.99;55.30
35507;BME280;36461;52.018;21.036;2023-05-21T08:33:27;100982.81;;;20.03;54.69
35507;BME280;36461;52.018;21.036;2023-05-21T08:35:55;100975.98;;;20.09;53.67
35507;BME280;36461;52.018;21.036;2023-05-21T08:38:27;100974.88;;;20.15;53.68
35507;BME280;36461;52.018;21.036;2023-05-21T08:41:09;100970.23;;;20.24;53.59
35507;BME280;36461;52.018;21.036;2023-05-21T08:43:38;100968.95;;;20.34;53.50
35507;BME280;36461;52.018;21.036;2023-05-21T08:46:07;100969.85;;;20.42;53.70
35507;BME280;36461;52.018;21.036;2023-05-21T08:48:38;100968.68;;;20.50;52.91
35507;BME280;36461;52.018;21.036;2023-05-21T08:51:07;100967.61;;;20.55;52.51
35507;BME280;36461;52.018;21.036;2023-05-21T08:53:38;100975.42;;;20.62;52.30
35507;BME280;36461;52.018;21.036;2023-05-21T08:56:08;100972.30;;;20.70;52.28
35507;BME280;36461;52.018;21.036;2023-05-21T08:58:46;100973.70;;;20.75;51.78
35507;BME280;36461;52.018;21.036;2023-05-21T09:01:17;100978.45;;;20.83;51.69
35507;BME280;36461;52.018;21.036;2023-05-21T09:03:49;100975.48;;;20.88;50.77
35507;BME280;36461;52.018;21.036;2023-05-21T09:06:20;100975.83;;;20.93;51.05
35507;BME280;36461;52.018;21.036;2023-05-21T09:08:55;100971.48;;;20.98;51.23
35507;BME280;36461;52.018;21.036;2023-05-21T09:11:31;100973.42;;;21.04;50.81
35507;BME280;36461;52.018;21.036;2023-05-21T09:13:59;100967.83;;;21.11;50.54
35507;BME280;36461;52.018;21.036;2023-05-21T09:16:51;100969.45;;;21.18;49.47
35507;BME280;36461;52.018;21.036;2023-05-21T09:19:20;100965.75;;;21.18;48.72
35507;BME280;36461;52.018;21.036;2023-05-21T09:21:52;100965.79;;;21.20;48.66
35507;BME280;36461;52.018;21.036;2023-05-21T09:24:22;100965.73;;;21.21;48.04
35507;BME280;36461;52.018;21.036;2023-05-21T09:26:50;100966.30;;;21.26;47.96
35507;BME280;36461;52.018;21.036;2023-05-21T09:29:19;100963.28;;;21.29;47.61
35507;BME280;36461;52.018;21.036;2023-05-21T09:31:48;100959.60;;;21.34;48.11
35507;BME280;36461;52.018;21.036;2023-05-21T09:34:16;100963.23;;;21.37;47.08
35507;BME280;36461;52.018;21.036;2023-05-21T09:36:47;100958.73;;;21.41;47.06
35507;BME280;36461;52.018;21.036;2023-05-21T09:39:28;100959.42;;;21.47;47.50
35507;BME280;36461;52.018;21.036;2023-05-21T09:42:00;100958.94;;;21.54;47.39
35507;BME280;36461;52.018;21.036;2023-05-21T09:44:29;100956.86;;;21.59;46.72
35507;BME280;36461;52.018;21.036;2023-05-21T09:46:57;100952.52;;;21.60;46.19
35507;BME280;36461;52.018;21.036;2023-05-21T09:49:28;100952.49;;;21.63;46.53
35507;BME280;36461;52.018;21.036;2023-05-21T09:51:59;100951.91;;;21.69;46.17
35507;BME280;36461;52.018;21.036;2023-05-21T09:54:31;100950.90;;;21.76;45.77
35507;BME280;36461;52.018;21.036;2023-05-21T09:57:02;100953.16;;;21.82;44.91
35507;BME280;36461;52.018;21.036;2023-05-21T09:59:38;100955.50;;;21.83;44.13
35507;BME280;36461;52.018;21.036;2023-05-21T10:02:18;100953.19;;;21.86;43.99
35507;BME280;36461;52.018;21.036;2023-05-21T10:04:49;100947.98;;;21.85;43.70
35507;BME280;36461;52.018;21.036;2023-05-21T10:07:19;100948.23;;;21.89;44.78
35507;BME280;36461;52.018;21.036;2023-05-21T10:09:54;100946.50;;;21.93;44.06
35507;BME280;36461;52.018;21.036;2023-05-21T10:12:23;100948.70;;;21.92;44.42
35507;BME280;36461;52.018;21.036;2023-05-21T10:15:07;100948.08;;;21.99;44.04
35507;BME280;36461;52.018;21.036;2023-05-21T10:17:36;100948.23;;;22.04;44.41
35507;BME280;36461;52.018;21.036;2023-05-21T10:20:07;100948.41;;;22.09;43.61
35507;BME280;36461;52.018;21.036;2023-05-21T10:22:38;100941.16;;;22.07;43.25
35507;BME280;36461;52.018;21.036;2023-05-21T10:25:07;100940.96;;;22.07;43.01
35507;BME280;36461;52.018;21.036;2023-05-21T10:27:36;100945.91;;;22.14;43.42
35507;BME280;36461;52.018;21.036;2023-05-21T10:30:06;100941.91;;;22.21;43.71
35507;BME280;36461;52.018;21.036;2023-05-21T10:32:35;100940.77;;;22.25;43.21
35507;BME280;36461;52.018;21.036;2023-05-21T10:35:04;100939.75;;;22.26;42.43
35507;BME280;36461;52.018;21.036;2023-05-21T10:37:33;100936.85;;;22.30;42.60
35507;BME280;36461;52.018;21.036;2023-05-21T10:40:02;100940.41;;;22.37;42.58
35507;BME280;36461;52.018;21.036;2023-05-21T10:48:09;100932.95;;;22.50;42.10
35507;BME280;36461;52.018;21.036;2023-05-21T11:01:28;100926.46;;;22.59;42.06
35507;BME280;36461;52.018;21.036;2023-05-21T11:04:01;100928.80;;;22.66;41.54
35507;BME280;36461;52.018;21.036;2023-05-21T11:06:30;100922.76;;;22.71;41.45
35507;BME280;36461;52.018;21.036;2023-05-21T11:09:12;100919.14;;;22.72;40.77
35507;BME280;36461;52.018;21.036;2023-05-21T11:11:56;100918.70;;;22.71;40.91
35507;BME280;36461;52.018;21.036;2023-05-21T11:14:55;100918.83;;;22.76;40.33
35507;BME280;36461;52.018;21.036;2023-05-21T11:17:39;100917.11;;;22.80;41.06
35507;BME280;36461;52.018;21.036;2023-05-21T11:20:12;100909.20;;;22.87;41.32
35507;BME280;36461;52.018;21.036;2023-05-21T11:22:44;100910.33;;;22.88;40.49
35507;BME280;36461;52.018;21.036;2023-05-21T11:25:13;100911.48;;;22.89;40.61
35507;BME280;36461;52.018;21.036;2023-05-21T11:27:42;100903.62;;;22.89;40.23
35507;BME280;36461;52.018;21.036;2023-05-21T11:30:15;100905.30;;;22.90;40.24
35507;BME280;36461;52.018;21.036;2023-05-21T11:38:17;100901.80;;;22.93;39.65
35507;BME280;36461;52.018;21.036;2023-05-21T11:40:52;100902.14;;;22.94;39.83
35507;BME280;36461;52.018;21.036;2023-05-21T11:43:23;100904.30;;;22.98;40.28
35507;BME280;36461;52.018;21.036;2023-05-21T11:45:51;100903.84;;;23.02;39.72
35507;BME280;36461;52.018;21.036;2023-05-21T11:48:22;100909.13;;;23.02;38.92
35507;BME280;36461;52.018;21.036;2023-05-21T11:50:54;100902.44;;;23.00;38.96
35507;BME280;36461;52.018;21.036;2023-05-21T11:53:24;100898.52;;;22.97;38.52
35507;BME280;36461;52.018;21.036;2023-05-21T11:55:52;100902.77;;;23.00;39.10
35507;BME280;36461;52.018;21.036;2023-05-21T11:58:24;100907.28;;;23.05;39.28
35507;BME280;36461;52.018;21.036;2023-05-21T12:00:52;100903.74;;;23.08;38.77
35507;BME280;36461;52.018;21.036;2023-05-21T12:03:21;100902.05;;;23.07;38.38
35507;BME280;36461;52.018;21.036;2023-05-21T12:05:53;100901.81;;;23.05;38.63
35507;BME280;36461;52.018;21.036;2023-05-21T12:08:22;100899.14;;;23.08;38.56
35507;BME280;36461;52.018;21.036;2023-05-21T12:10:58;100897.06;;;23.12;39.31
35507;BME280;36461;52.018;21.036;2023-05-21T12:13:27;100888.85;;;23.14;38.35
35507;BME280;36461;52.018;21.036;2023-05-21T12:15:55;100889.63;;;23.15;38.76
35507;BME280;36461;52.018;21.036;2023-05-21T12:18:24;100890.23;;;23.21;38.35
35507;BME280;36461;52.018;21.036;2023-05-21T12:20:53;100892.91;;;23.25;38.46
35507;BME280;36461;52.018;21.036;2023-05-21T12:23:24;100891.26;;;23.31;37.85
35507;BME280;36461;52.018;21.036;2023-05-21T12:25:52;100890.04;;;23.35;37.80
35507;BME280;36461;52.018;21.036;2023-05-21T12:28:21;100885.29;;;23.37;37.52
35507;BME280;36461;52.018;21.036;2023-05-21T12:30:51;100883.38;;;23.39;37.67
35507;BME280;36461;52.018;21.036;2023-05-21T12:33:20;100880.99;;;23.44;38.20
35507;BME280;36461;52.018;21.036;2023-05-21T12:35:51;100886.64;;;23.46;36.96
35507;BME280;36461;52.018;21.036;2023-05-21T12:38:20;100881.11;;;23.43;37.01
35507;BME280;36461;52.018;21.036;2023-05-21T12:40:48;100886.14;;;23.42;37.66
35507;BME280;36461;52.018;21.036;2023-05-21T12:43:16;100882.25;;;23.44;37.78
35507;BME280;36461;52.018;21.036;2023-05-21T12:45:44;100877.27;;;23.47;37.68
35507;BME280;36461;52.018;21.036;2023-05-21T12:48:12;100875.52;;;23.51;37.51
35507;BME280;36461;52.018;21.036;2023-05-21T12:50:41;100873.59;;;23.53;37.34
35507;BME280;36461;52.018;21.036;2023-05-21T12:53:09;100868.31;;;23.55;37.64
35507;BME280;36461;52.018;21.036;2023-05-21T12:55:39;100866.23;;;23.57;38.33
35507;BME280;36461;52.018;21.036;2023-05-21T12:58:12;100870.89;;;23.60;38.53
35507;BME280;36461;52.018;21.036;2023-05-21T13:00:41;100871.80;;;23.65;38.89
35507;BME280;36461;52.018;21.036;2023-05-21T13:03:10;100873.21;;;23.62;39.07
35507;BME280;36461;52.018;21.036;2023-05-21T13:05:39;100876.36;;;23.56;38.52
35507;BME280;36461;52.018;21.036;2023-05-21T13:08:08;100872.89;;;23.51;38.24
35507;BME280;36461;52.018;21.036;2023-05-21T13:10:37;100862.09;;;23.49;38.55
35507;BME280;36461;52.018;21.036;2023-05-21T13:13:06;100859.22;;;23.47;37.99
35507;BME280;36461;52.018;21.036;2023-05-21T13:15:34;100855.58;;;23.49;38.08
35507;BME280;36461;52.018;21.036;2023-05-21T13:18:02;100856.02;;;23.56;37.89
35507;BME280;36461;52.018;21.036;2023-05-21T13:20:30;100854.56;;;23.70;37.62
35507;BME280;36461;52.018;21.036;2023-05-21T13:22:59;100857.98;;;23.92;38.00
35507;BME280;36461;52.018;21.036;2023-05-21T13:25:30;100855.67;;;24.05;37.66